Townsend, MT (59644)

11:48 PM MST on February 08, 2016 (GMT -0700)
Townsend Seeds | | Change Station
CLOSE
Current Station
Personal Weather Station
Location: Townsend, MT
Elevation: 3825 ft
Nearby Weather Stations

Elev 3825 ft 46.32 °N, 111.52 °W | Updated 3 seconds ago

Clear
Clear
29.1 °F
Feels Like 25 °F
N
3.8
Wind Variable Wind from ENE
Gusts 4.7 mph

Today
High -- | Low -- °F
--% Chance of Precip.
Yesterday
High -- | Low -- °F
Precip. -- in
Pressure 30.55 in
Visibility 10.0 miles
Clouds Clear
Windchill 25 °F
Dew Point 21 °F
Humidity 72%
Rainfall 0.00 in
Snow Depth Not available.
7:40 AM 5:40 PM
New Moon, 1% visible
METAR KHLN 090553Z AUTO 34003KT 10SM CLR 03/M01 A3042 RMK AO2 SLP343 T00331011 10106 20017 53004 $
Pressure 30.55 in
Visibility 10.0 miles
Clouds Clear
Windchill 25 °F
Dew Point 21 °F
Humidity 72%
Rainfall 0.00 in
Snow Depth Not available.
7:40 AM 5:40 PM
New Moon, 1% visible
METAR KHLN 090553Z AUTO 34003KT 10SM CLR 03/M01 A3042 RMK AO2 SLP343 T00331011 10106 20017 53004 $

10-Day Weather Forecast

Almanac

Astronomy

Feb. 08, 2016 Rise Set
Actual Time
Civil Twilight
Nautical Twilight
Astronomical Twilight
Moon
Length of Visible Light
Length of Day
Tomorrow will be .
, % of the Moon is Illuminated

Today's Extremes

State Highs State Lows

Community

WunderPhotos

Upload Photos

1,891,571 photos uploaded!

WunderBlog® & News

Nearby

Air Quality

  Air Quality AQ Index Pollutant
Not available.

Snow Depth

Station Depth Elevation

Earthquake Activity

City Distance Mag. Time & Date
Minimum magnitude displayed is 2.5.

Coastal Water Temperatures

Place Temperature

Stations

Nearby Weather Stations

Station Location Temp. Windchill Dew Point Humidity Wind Precip. Elev Updated Type
                   

Watches & Warnings

There are currently no watches in effect.